sensor_id;sensor_type;location;lat;lon;timestamp;temperature;humidity
23715;DHT22;12036;50.858;4.472;2023-09-12T00:01:07;20.50;99.90
23715;DHT22;12036;50.858;4.472;2023-09-12T00:03:34;20.50;99.90
23715;DHT22;12036;50.858;4.472;2023-09-12T00:06:01;20.50;99.90
23715;DHT22;12036;50.858;4.472;2023-09-12T00:08:27;20.50;99.90
23715;DHT22;12036;50.858;4.472;2023-09-12T00:11:06;20.50;99.90
23715;DHT22;12036;50.858;4.472;2023-09-12T00:13:35;20.50;99.90
23715;DHT22;12036;50.858;4.472;2023-09-12T00:16:01;20.40;99.90
23715;DHT22;12036;50.858;4.472;2023-09-12T00:18:27;20.40;99.90
23715;DHT22;12036;50.858;4.472;2023-09-12T00:20:53;20.40;99.90
23715;DHT22;12036;50.858;4.472;2023-09-12T00:23:21;20.50;99.90
23715;DHT22;12036;50.858;4.472;2023-09-12T00:25:47;20.50;99.90
23715;DHT22;12036;50.858;4.472;2023-09-12T00:28:13;20.50;99.90
23715;DHT22;12036;50.858;4.472;2023-09-12T00:30:38;20.50;99.90
23715;DHT22;12036;50.858;4.472;2023-09-12T00:33:04;20.50;99.90
23715;DHT22;12036;50.858;4.472;2023-09-12T00:35:29;20.50;99.90
23715;DHT22;12036;50.858;4.472;2023-09-12T00:37:55;20.50;99.90
23715;DHT22;12036;50.858;4.472;2023-09-12T00:40:21;20.50;99.90
23715;DHT22;12036;50.858;4.472;2023-09-12T00:42:47;20.50;99.90
23715;DHT22;12036;50.858;4.472;2023-09-12T00:45:12;20.50;99.90
23715;DHT22;12036;50.858;4.472;2023-09-12T00:47:38;20.50;99.90
23715;DHT22;12036;50.858;4.472;2023-09-12T00:50:05;20.50;99.90
23715;DHT22;12036;50.858;4.472;2023-09-12T00:52:33;20.50;99.90
23715;DHT22;12036;50.858;4.472;2023-09-12T00:54:59;20.50;99.90
23715;DHT22;12036;50.858;4.472;2023-09-12T00:57:25;20.40;99.90
23715;DHT22;12036;50.858;4.472;2023-09-12T00:59:51;20.40;99.90
23715;DHT22;12036;50.858;4.472;2023-09-12T01:02:19;20.30;99.90
23715;DHT22;12036;50.858;4.472;2023-09-12T01:04:45;20.30;99.90
23715;DHT22;12036;50.858;4.472;2023-09-12T01:07:11;20.30;99.90
23715;DHT22;12036;50.858;4.472;2023-09-12T01:09:37;20.20;99.90
23715;DHT22;12036;50.858;4.472;2023-09-12T01:12:03;20.20;99.90
23715;DHT22;12036;50.858;4.472;2023-09-12T01:14:30;20.20;99.90
23715;DHT22;12036;50.858;4.472;2023-09-12T01:16:56;20.10;99.90
23715;DHT22;12036;50.858;4.472;2023-09-12T01:19:23;20.10;99.90
23715;DHT22;12036;50.858;4.472;2023-09-12T01:27:27;20.00;99.90
23715;DHT22;12036;50.858;4.472;2023-09-12T01:30:02;20.00;99.90
23715;DHT22;12036;50.858;4.472;2023-09-12T01:32:29;19.90;99.90
23715;DHT22;12036;50.858;4.472;2023-09-12T01:34:56;19.80;99.90
23715;DHT22;12036;50.858;4.472;2023-09-12T01:37:22;19.80;99.90
23715;DHT22;12036;50.858;4.472;2023-09-12T01:39:47;19.80;99.90
23715;DHT22;12036;50.858;4.472;2023-09-12T01:42:16;19.70;99.90
23715;DHT22;12036;50.858;4.472;2023-09-12T01:44:45;19.70;99.90
23715;DHT22;12036;50.858;4.472;2023-09-12T01:47:12;19.70;99.90
23715;DHT22;12036;50.858;4.472;2023-09-12T01:49:42;19.70;99.90
23715;DHT22;12036;50.858;4.472;2023-09-12T01:52:09;19.60;99.90
23715;DHT22;12036;50.858;4.472;2023-09-12T01:54:36;19.70;99.90
23715;DHT22;12036;50.858;4.472;2023-09-12T01:57:03;19.60;99.90
23715;DHT22;12036;50.858;4.472;2023-09-12T01:59:29;19.60;99.90
23715;DHT22;12036;50.858;4.472;2023-09-12T02:01:55;19.60;99.90
23715;DHT22;12036;50.858;4.472;2023-09-12T02:04:20;19.60;99.90
23715;DHT22;12036;50.858;4.472;2023-09-12T02:06:46;19.60;99.90
23715;DHT22;12036;50.858;4.472;2023-09-12T02:09:12;19.60;99.90
23715;DHT22;12036;50.858;4.472;2023-09-12T02:11:37;19.50;99.90
23715;DHT22;12036;50.858;4.472;2023-09-12T02:14:03;19.50;99.90
23715;DHT22;12036;50.858;4.472;2023-09-12T02:16:30;19.50;99.90
23715;DHT22;12036;50.858;4.472;2023-09-12T02:18:56;19.50;99.90
23715;DHT22;12036;50.858;4.472;2023-09-12T02:21:22;19.60;99.90
23715;DHT22;12036;50.858;4.472;2023-09-12T02:23:47;19.60;99.90
23715;DHT22;12036;50.858;4.472;2023-09-12T02:26:13;19.60;99.90
23715;DHT22;12036;50.858;4.472;2023-09-12T02:28:39;19.60;99.90
23715;DHT22;12036;50.858;4.472;2023-09-12T02:31:12;19.70;99.90
23715;DHT22;12036;50.858;4.472;2023-09-12T02:33:39;19.70;99.90
23715;DHT22;12036;50.858;4.472;2023-09-12T02:36:05;19.60;99.90
23715;DHT22;12036;50.858;4.472;2023-09-12T02:38:31;19.70;99.90
23715;DHT22;12036;50.858;4.472;2023-09-12T02:40:56;19.70;99.90
23715;DHT22;12036;50.858;4.472;2023-09-12T02:43:22;19.70;99.90
23715;DHT22;12036;50.858;4.472;2023-09-12T02:45:48;19.70;99.90
23715;DHT22;12036;50.858;4.472;2023-09-12T02:48:13;19.80;99.90
23715;DHT22;12036;50.858;4.472;2023-09-12T02:50:39;19.80;99.90
23715;DHT22;12036;50.858;4.472;2023-09-12T02:53:05;19.90;99.90
23715;DHT22;12036;50.858;4.472;2023-09-12T02:55:31;20.00;99.90
23715;DHT22;12036;50.858;4.472;2023-09-12T02:57:57;20.10;99.90
23715;DHT22;12036;50.858;4.472;2023-09-12T03:00:23;20.10;99.90
23715;DHT22;12036;50.858;4.472;2023-09-12T03:02:48;20.10;99.90
23715;DHT22;12036;50.858;4.472;2023-09-12T03:05:14;20.10;99.90
23715;DHT22;12036;50.858;4.472;2023-09-12T03:07:40;20.10;99.90
23715;DHT22;12036;50.858;4.472;2023-09-12T03:10:06;20.10;99.90
23715;DHT22;12036;50.858;4.472;2023-09-12T03:12:32;20.20;99.90
23715;DHT22;12036;50.858;4.472;2023-09-12T03:14:57;20.20;99.90
23715;DHT22;12036;50.858;4.472;2023-09-12T03:17:23;20.20;99.90
23715;DHT22;12036;50.858;4.472;2023-09-12T03:19:48;20.20;99.90
23715;DHT22;12036;50.858;4.472;2023-09-12T03:22:15;20.20;99.90
23715;DHT22;12036;50.858;4.472;2023-09-12T03:24:40;20.30;99.90
23715;DHT22;12036;50.858;4.472;2023-09-12T03:27:07;20.30;99.90
23715;DHT22;12036;50.858;4.472;2023-09-12T03:29:33;20.30;99.90
23715;DHT22;12036;50.858;4.472;2023-09-12T03:31:58;20.30;99.90
23715;DHT22;12036;50.858;4.472;2023-09-12T03:34:24;20.30;99.90
23715;DHT22;12036;50.858;4.472;2023-09-12T03:36:50;20.30;99.90
23715;DHT22;12036;50.858;4.472;2023-09-12T03:39:15;20.40;99.90
23715;DHT22;12036;50.858;4.472;2023-09-12T03:41:41;20.40;99.90
23715;DHT22;12036;50.858;4.472;2023-09-12T03:44:07;20.30;99.90
23715;DHT22;12036;50.858;4.472;2023-09-12T03:46:33;20.40;99.90
23715;DHT22;12036;50.858;4.472;2023-09-12T03:48:58;20.40;99.90
23715;DHT22;12036;50.858;4.472;2023-09-12T03:51:24;20.30;99.90
23715;DHT22;12036;50.858;4.472;2023-09-12T03:53:49;20.40;99.90
23715;DHT22;12036;50.858;4.472;2023-09-12T03:56:16;20.30;99.90
23715;DHT22;12036;50.858;4.472;2023-09-12T03:58:42;20.30;99.90
23715;DHT22;12036;50.858;4.472;2023-09-12T04:01:07;20.30;99.90
23715;DHT22;12036;50.858;4.472;2023-09-12T04:03:33;20.30;99.90
23715;DHT22;12036;50.858;4.472;2023-09-12T04:05:59;20.30;99.90
23715;DHT22;12036;50.858;4.472;2023-09-12T04:08:24;20.30;99.90
23715;DHT22;12036;50.858;4.472;2023-09-12T04:10:50;20.30;99.90
23715;DHT22;12036;50.858;4.472;2023-09-12T04:13:15;20.30;99.90
23715;DHT22;12036;50.858;4.472;2023-09-12T04:15:41;20.30;99.90
23715;DHT22;12036;50.858;4.472;2023-09-12T04:18:07;20.30;99.90
23715;DHT22;12036;50.858;4.472;2023-09-12T04:20:33;20.30;99.90
23715;DHT22;12036;50.858;4.472;2023-09-12T04:23:02;20.20;99.90
23715;DHT22;12036;50.858;4.472;2023-09-12T04:25:29;20.30;99.90
23715;DHT22;12036;50.858;4.472;2023-09-12T04:27:54;20.30;99.90
23715;DHT22;12036;50.858;4.472;2023-09-12T04:30:20;20.30;99.90
23715;DHT22;12036;50.858;4.472;2023-09-12T04:32:46;20.30;99.90
23715;DHT22;12036;50.858;4.472;2023-09-12T04:35:11;20.30;99.90
23715;DHT22;12036;50.858;4.472;2023-09-12T04:37:37;20.30;99.90
23715;DHT22;12036;50.858;4.472;2023-09-12T04:40:03;20.30;99.90
23715;DHT22;12036;50.858;4.472;2023-09-12T04:42:31;20.30;99.90
23715;DHT22;12036;50.858;4.472;2023-09-12T04:44:57;20.30;99.90
23715;DHT22;12036;50.858;4.472;2023-09-12T04:47:22;20.30;99.90
23715;DHT22;12036;50.858;4.472;2023-09-12T04:49:49;20.30;99.90
23715;DHT22;12036;50.858;4.472;2023-09-12T04:52:14;20.30;99.90
23715;DHT22;12036;50.858;4.472;2023-09-12T04:54:40;20.20;99.90
23715;DHT22;12036;50.858;4.472;2023-09-12T04:57:06;20.30;99.90
23715;DHT22;12036;50.858;4.472;2023-09-12T04:59:31;20.20;99.90
23715;DHT22;12036;50.858;4.472;2023-09-12T05:01:57;20.20;99.90
23715;DHT22;12036;50.858;4.472;2023-09-12T05:04:22;20.20;99.90
23715;DHT22;12036;50.858;4.472;2023-09-12T05:06:48;20.10;99.90
23715;DHT22;12036;50.858;4.472;2023-09-12T05:09:14;20.10;99.90
23715;DHT22;12036;50.858;4.472;2023-09-12T05:11:40;20.10;99.90
23715;DHT22;12036;50.858;4.472;2023-09-12T05:14:06;20.10;99.90
23715;DHT22;12036;50.858;4.472;2023-09-12T05:16:32;20.00;99.90
23715;DHT22;12036;50.858;4.472;2023-09-12T05:18:57;20.00;99.90
23715;DHT22;12036;50.858;4.472;2023-09-12T05:21:23;20.00;99.90
23715;DHT22;12036;50.858;4.472;2023-09-12T05:23:49;19.90;99.90
23715;DHT22;12036;50.858;4.472;2023-09-12T05:26:14;19.90;99.90
23715;DHT22;12036;50.858;4.472;2023-09-12T05:28:40;19.90;99.90
23715;DHT22;12036;50.858;4.472;2023-09-12T05:31:06;19.80;99.90
23715;DHT22;12036;50.858;4.472;2023-09-12T05:33:32;19.80;99.90
23715;DHT22;12036;50.858;4.472;2023-09-12T05:35:58;19.70;99.90
23715;DHT22;12036;50.858;4.472;2023-09-12T05:38:23;19.70;99.90
23715;DHT22;12036;50.858;4.472;2023-09-12T05:40:49;19.70;99.90
23715;DHT22;12036;50.858;4.472;2023-09-12T05:43:16;19.70;99.90
23715;DHT22;12036;50.858;4.472;2023-09-12T05:45:42;19.70;99.90
23715;DHT22;12036;50.858;4.472;2023-09-12T05:48:07;19.70;99.90
23715;DHT22;12036;50.858;4.472;2023-09-12T05:50:36;19.70;99.90
23715;DHT22;12036;50.858;4.472;2023-09-12T05:53:01;19.70;99.90
23715;DHT22;12036;50.858;4.472;2023-09-12T05:55:27;19.70;99.90
23715;DHT22;12036;50.858;4.472;2023-09-12T05:57:53;19.70;99.90
23715;DHT22;12036;50.858;4.472;2023-09-12T06:00:19;19.70;99.90
23715;DHT22;12036;50.858;4.472;2023-09-12T06:02:46;19.70;99.90
23715;DHT22;12036;50.858;4.472;2023-09-12T06:05:11;19.80;99.90
23715;DHT22;12036;50.858;4.472;2023-09-12T06:07:37;19.80;99.90
23715;DHT22;12036;50.858;4.472;2023-09-12T06:10:05;19.90;99.90
23715;DHT22;12036;50.858;4.472;2023-09-12T06:12:30;19.90;99.90
23715;DHT22;12036;50.858;4.472;2023-09-12T06:15:01;19.90;99.90
23715;DHT22;12036;50.858;4.472;2023-09-12T06:17:26;20.00;99.90
23715;DHT22;12036;50.858;4.472;2023-09-12T06:19:53;20.00;99.90
23715;DHT22;12036;50.858;4.472;2023-09-12T06:22:19;20.10;99.90
23715;DHT22;12036;50.858;4.472;2023-09-12T06:24:45;20.20;99.90
23715;DHT22;12036;50.858;4.472;2023-09-12T06:27:10;20.30;99.90
23715;DHT22;12036;50.858;4.472;2023-09-12T06:29:39;20.40;99.90
23715;DHT22;12036;50.858;4.472;2023-09-12T06:32:10;20.40;99.90
23715;DHT22;12036;50.858;4.472;2023-09-12T06:34:36;20.50;99.90
23715;DHT22;12036;50.858;4.472;2023-09-12T06:37:02;20.50;99.90
23715;DHT22;12036;50.858;4.472;2023-09-12T06:39:27;20.60;99.90
23715;DHT22;12036;50.858;4.472;2023-09-12T06:41:53;20.70;99.90
23715;DHT22;12036;50.858;4.472;2023-09-12T06:44:18;20.70;99.90
23715;DHT22;12036;50.858;4.472;2023-09-12T06:46:44;20.90;99.90
23715;DHT22;12036;50.858;4.472;2023-09-12T06:49:10;21.10;99.90
23715;DHT22;12036;50.858;4.472;2023-09-12T06:51:35;21.30;99.90
23715;DHT22;12036;50.858;4.472;2023-09-12T06:54:01;21.50;99.90
23715;DHT22;12036;50.858;4.472;2023-09-12T06:56:26;21.70;99.90
23715;DHT22;12036;50.858;4.472;2023-09-12T06:58:52;21.90;99.90
23715;DHT22;12036;50.858;4.472;2023-09-12T07:01:20;22.10;99.90
23715;DHT22;12036;50.858;4.472;2023-09-12T07:03:46;22.20;99.90
23715;DHT22;12036;50.858;4.472;2023-09-12T07:06:12;22.20;99.90
23715;DHT22;12036;50.858;4.472;2023-09-12T07:08:39;22.20;99.90
23715;DHT22;12036;50.858;4.472;2023-09-12T07:11:05;22.30;99.90
23715;DHT22;12036;50.858;4.472;2023-09-12T07:13:34;22.40;99.90
23715;DHT22;12036;50.858;4.472;2023-09-12T07:16:00;22.40;99.90
23715;DHT22;12036;50.858;4.472;2023-09-12T07:18:29;22.40;99.90
23715;DHT22;12036;50.858;4.472;2023-09-12T07:21:05;22.40;99.90
23715;DHT22;12036;50.858;4.472;2023-09-12T07:23:31;22.50;99.90
23715;DHT22;12036;50.858;4.472;2023-09-12T07:25:58;22.50;99.90
23715;DHT22;12036;50.858;4.472;2023-09-12T07:28:24;22.50;99.90
23715;DHT22;12036;50.858;4.472;2023-09-12T07:30:50;22.50;99.90
23715;DHT22;12036;50.858;4.472;2023-09-12T07:33:16;22.60;99.90
23715;DHT22;12036;50.858;4.472;2023-09-12T07:35:41;23.20;99.90
23715;DHT22;12036;50.858;4.472;2023-09-12T07:38:07;23.60;99.90
23715;DHT22;12036;50.858;4.472;2023-09-12T07:40:33;24.00;99.90
23715;DHT22;12036;50.858;4.472;2023-09-12T07:42:58;24.50;99.90
23715;DHT22;12036;50.858;4.472;2023-09-12T07:45:24;24.60;99.90
23715;DHT22;12036;50.858;4.472;2023-09-12T07:47:49;24.50;99.90
23715;DHT22;12036;50.858;4.472;2023-09-12T07:50:15;24.50;99.90
23715;DHT22;12036;50.858;4.472;2023-09-12T07:52:41;24.40;99.90
23715;DHT22;12036;50.858;4.472;2023-09-12T07:55:07;24.30;99.90
23715;DHT22;12036;50.858;4.472;2023-09-12T07:57:33;24.20;99.90
23715;DHT22;12036;50.858;4.472;2023-09-12T08:00:00;24.00;99.90
23715;DHT22;12036;50.858;4.472;2023-09-12T08:02:26;23.90;99.90
23715;DHT22;12036;50.858;4.472;2023-09-12T08:04:52;23.80;99.90
23715;DHT22;12036;50.858;4.472;2023-09-12T08:07:20;23.90;99.90
23715;DHT22;12036;50.858;4.472;2023-09-12T08:09:54;24.00;99.90
23715;DHT22;12036;50.858;4.472;2023-09-12T08:12:21;24.10;99.90
23715;DHT22;12036;50.858;4.472;2023-09-12T08:14:48;24.10;99.90
23715;DHT22;12036;50.858;4.472;2023-09-12T08:17:14;24.20;99.90
23715;DHT22;12036;50.858;4.472;2023-09-12T08:19:41;24.30;99.90
23715;DHT22;12036;50.858;4.472;2023-09-12T08:22:07;24.30;99.90
23715;DHT22;12036;50.858;4.472;2023-09-12T08:24:34;24.50;99.90
23715;DHT22;12036;50.858;4.472;2023-09-12T08:27:00;24.40;99.90
23715;DHT22;12036;50.858;4.472;2023-09-12T08:29:28;24.40;99.90
23715;DHT22;12036;50.858;4.472;2023-09-12T08:31:54;24.30;99.90
23715;DHT22;12036;50.858;4.472;2023-09-12T08:34:22;24.20;99.90
23715;DHT22;12036;50.858;4.472;2023-09-12T08:36:48;24.10;99.90
23715;DHT22;12036;50.858;4.472;2023-09-12T08:39:17;24.10;99.90
23715;DHT22;12036;50.858;4.472;2023-09-12T08:41:43;24.00;99.90
23715;DHT22;12036;50.858;4.472;2023-09-12T08:44:12;24.10;99.90
23715;DHT22;12036;50.858;4.472;2023-09-12T08:46:41;24.20;99.90
23715;DHT22;12036;50.858;4.472;2023-09-12T08:49:08;24.30;99.90
23715;DHT22;12036;50.858;4.472;2023-09-12T08:51:35;24.40;99.90
23715;DHT22;12036;50.858;4.472;2023-09-12T08:54:01;24.40;99.90
23715;DHT22;12036;50.858;4.472;2023-09-12T08:56:29;24.50;99.90
23715;DHT22;12036;50.858;4.472;2023-09-12T08:58:56;24.50;99.90
23715;DHT22;12036;50.858;4.472;2023-09-12T09:01:23;24.60;99.90
23715;DHT22;12036;50.858;4.472;2023-09-12T09:03:53;24.70;99.90
23715;DHT22;12036;50.858;4.472;2023-09-12T09:06:20;24.80;99.90
23715;DHT22;12036;50.858;4.472;2023-09-12T09:08:48;24.80;99.90
23715;DHT22;12036;50.858;4.472;2023-09-12T09:11:14;24.90;99.90
23715;DHT22;12036;50.858;4.472;2023-09-12T09:13:39;25.10;99.90
23715;DHT22;12036;50.858;4.472;2023-09-12T09:16:16;25.20;99.90
23715;DHT22;12036;50.858;4.472;2023-09-12T09:18:55;25.30;99.90
23715;DHT22;12036;50.858;4.472;2023-09-12T09:21:23;25.70;99.90
23715;DHT22;12036;50.858;4.472;2023-09-12T09:23:55;25.60;99.90
23715;DHT22;12036;50.858;4.472;2023-09-12T09:26:22;25.70;99.90
23715;DHT22;12036;50.858;4.472;2023-09-12T09:29:23;26.60;99.90
23715;DHT22;12036;50.858;4.472;2023-09-12T09:31:50;28.30;99.90
23715;DHT22;12036;50.858;4.472;2023-09-12T09:34:17;30.10;98.30
23715;DHT22;12036;50.858;4.472;2023-09-12T09:36:46;31.40;95.40
23715;DHT22;12036;50.858;4.472;2023-09-12T09:39:13;32.30;92.80
23715;DHT22;12036;50.858;4.472;2023-09-12T09:41:39;32.90;90.90
23715;DHT22;12036;50.858;4.472;2023-09-12T09:44:08;33.10;88.00
23715;DHT22;12036;50.858;4.472;2023-09-12T09:46:37;32.90;86.40
23715;DHT22;12036;50.858;4.472;2023-09-12T09:49:03;32.90;86.40
23715;DHT22;12036;50.858;4.472;2023-09-12T09:51:32;32.70;86.10
23715;DHT22;12036;50.858;4.472;2023-09-12T09:53:57;32.90;86.20
23715;DHT22;12036;50.858;4.472;2023-09-12T09:56:24;33.20;86.00
23715;DHT22;12036;50.858;4.472;2023-09-12T09:58:55;33.10;84.70
23715;DHT22;12036;50.858;4.472;2023-09-12T10:01:23;32.60;87.50
23715;DHT22;12036;50.858;4.472;2023-09-12T10:03:53;32.10;87.90
23715;DHT22;12036;50.858;4.472;2023-09-12T10:06:22;31.20;88.40
23715;DHT22;12036;50.858;4.472;2023-09-12T10:08:52;30.80;88.20
23715;DHT22;12036;50.858;4.472;2023-09-12T10:11:20;30.70;88.60
23715;DHT22;12036;50.858;4.472;2023-09-12T10:13:57;30.20;89.60
23715;DHT22;12036;50.858;4.472;2023-09-12T10:16:32;29.60;90.50
23715;DHT22;12036;50.858;4.472;2023-09-12T10:19:17;28.90;91.50
23715;DHT22;12036;50.858;4.472;2023-09-12T10:22:09;28.40;92.30
23715;DHT22;12036;50.858;4.472;2023-09-12T10:24:36;28.00;93.40
23715;DHT22;12036;50.858;4.472;2023-09-12T10:27:03;27.60;93.90
23715;DHT22;12036;50.858;4.472;2023-09-12T10:29:31;27.40;94.00
23715;DHT22;12036;50.858;4.472;2023-09-12T10:31:56;27.20;95.20
23715;DHT22;12036;50.858;4.472;2023-09-12T10:34:25;27.00;95.30
23715;DHT22;12036;50.858;4.472;2023-09-12T10:36:51;27.00;96.10
23715;DHT22;12036;50.858;4.472;2023-09-12T10:39:19;27.00;95.80
23715;DHT22;12036;50.858;4.472;2023-09-12T10:41:46;26.80;95.80
23715;DHT22;12036;50.858;4.472;2023-09-12T10:44:21;26.80;96.50
23715;DHT22;12036;50.858;4.472;2023-09-12T10:46:47;26.80;96.70
23715;DHT22;12036;50.858;4.472;2023-09-12T10:49:15;26.80;97.00
23715;DHT22;12036;50.858;4.472;2023-09-12T10:51:41;26.80;97.10
23715;DHT22;12036;50.858;4.472;2023-09-12T10:54:07;26.80;96.90
23715;DHT22;12036;50.858;4.472;2023-09-12T10:56:34;26.70;97.00
23715;DHT22;12036;50.858;4.472;2023-09-12T11:01:30;26.90;97.50
23715;DHT22;12036;50.858;4.472;2023-09-12T11:03:56;27.00;96.60
23715;DHT22;12036;50.858;4.472;2023-09-12T11:06:29;27.00;96.50
23715;DHT22;12036;50.858;4.472;2023-09-12T11:11:43;26.80;96.70
23715;DHT22;12036;50.858;4.472;2023-09-12T11:14:10;26.60;97.20
23715;DHT22;12036;50.858;4.472;2023-09-12T11:16:36;26.40;97.40
23715;DHT22;12036;50.858;4.472;2023-09-12T11:19:17;26.30;97.60
23715;DHT22;12036;50.858;4.472;2023-09-12T11:21:49;26.30;98.00
23715;DHT22;12036;50.858;4.472;2023-09-12T11:24:15;26.70;97.20
23715;DHT22;12036;50.858;4.472;2023-09-12T11:29:19;27.70;96.40
23715;DHT22;12036;50.858;4.472;2023-09-12T11:31:55;27.60;95.50
23715;DHT22;12036;50.858;4.472;2023-09-12T11:34:28;27.70;95.70
23715;DHT22;12036;50.858;4.472;2023-09-12T11:36:56;28.10;95.90
23715;DHT22;12036;50.858;4.472;2023-09-12T11:39:24;28.20;95.70
23715;DHT22;12036;50.858;4.472;2023-09-12T11:41:51;28.30;95.40
23715;DHT22;12036;50.858;4.472;2023-09-12T11:44:19;28.60;95.70
23715;DHT22;12036;50.858;4.472;2023-09-12T11:46:47;28.90;94.40
23715;DHT22;12036;50.858;4.472;2023-09-12T11:49:15;29.00;95.00
23715;DHT22;12036;50.858;4.472;2023-09-12T11:51:51;29.10;93.80
23715;DHT22;12036;50.858;4.472;2023-09-12T11:54:19;29.00;93.90
23715;DHT22;12036;50.858;4.472;2023-09-12T11:56:47;29.10;93.50
23715;DHT22;12036;50.858;4.472;2023-09-12T11:59:13;29.10;94.00
23715;DHT22;12036;50.858;4.472;2023-09-12T12:01:39;29.00;93.90
23715;DHT22;12036;50.858;4.472;2023-09-12T12:04:05;28.90;93.60
23715;DHT22;12036;50.858;4.472;2023-09-12T12:06:32;28.80;94.20
23715;DHT22;12036;50.858;4.472;2023-09-12T12:09:00;29.00;93.90
23715;DHT22;12036;50.858;4.472;2023-09-12T12:11:29;28.90;93.90
23715;DHT22;12036;50.858;4.472;2023-09-12T12:13:55;28.60;94.70
23715;DHT22;12036;50.858;4.472;2023-09-12T12:16:20;28.30;94.70
23715;DHT22;12036;50.858;4.472;2023-09-12T12:18:46;28.00;94.40
23715;DHT22;12036;50.858;4.472;2023-09-12T12:21:12;27.60;94.30
23715;DHT22;12036;50.858;4.472;2023-09-12T12:23:37;27.40;94.60
23715;DHT22;12036;50.858;4.472;2023-09-12T12:26:07;27.10;95.20
23715;DHT22;12036;50.858;4.472;2023-09-12T12:28:35;26.90;95.30
23715;DHT22;12036;50.858;4.472;2023-09-12T12:31:01;26.90;95.40
23715;DHT22;12036;50.858;4.472;2023-09-12T12:33:27;26.80;96.00
23715;DHT22;12036;50.858;4.472;2023-09-12T12:36:04;26.80;95.50
23715;DHT22;12036;50.858;4.472;2023-09-12T12:38:35;26.90;95.20
23715;DHT22;12036;50.858;4.472;2023-09-12T12:41:01;27.00;95.70
23715;DHT22;12036;50.858;4.472;2023-09-12T12:43:26;27.10;95.60
23715;DHT22;12036;50.858;4.472;2023-09-12T12:45:57;27.00;96.50
23715;DHT22;12036;50.858;4.472;2023-09-12T12:50:56;26.60;96.60
23715;DHT22;12036;50.858;4.472;2023-09-12T12:54:24;26.50;96.50
23715;DHT22;12036;50.858;4.472;2023-09-12T12:56:31;26.50;97.00
23715;DHT22;12036;50.858;4.472;2023-09-12T12:58:59;26.40;97.40
23715;DHT22;12036;50.858;4.472;2023-09-12T13:01:28;26.30;97.20
23715;DHT22;12036;50.858;4.472;2023-09-12T13:03:54;26.20;97.40
23715;DHT22;12036;50.858;4.472;2023-09-12T13:06:22;26.20;97.00
23715;DHT22;12036;50.858;4.472;2023-09-12T13:08:49;26.30;97.00
23715;DHT22;12036;50.858;4.472;2023-09-12T13:11:16;26.30;97.40
23715;DHT22;12036;50.858;4.472;2023-09-12T13:13:42;26.30;97.60
23715;DHT22;12036;50.858;4.472;2023-09-12T13:16:09;26.20;98.00
23715;DHT22;12036;50.858;4.472;2023-09-12T13:18:36;26.10;98.00
23715;DHT22;12036;50.858;4.472;2023-09-12T13:21:03;26.10;98.10
23715;DHT22;12036;50.858;4.472;2023-09-12T13:23:29;26.10;97.90
23715;DHT22;12036;50.858;4.472;2023-09-12T13:25:55;26.00;98.20
23715;DHT22;12036;50.858;4.472;2023-09-12T13:28:21;25.90;98.10
23715;DHT22;12036;50.858;4.472;2023-09-12T13:30:51;25.80;98.00
23715;DHT22;12036;50.858;4.472;2023-09-12T13:33:17;25.70;98.00
23715;DHT22;12036;50.858;4.472;2023-09-12T13:35:42;25.70;97.90
23715;DHT22;12036;50.858;4.472;2023-09-12T13:38:08;25.60;98.10
23715;DHT22;12036;50.858;4.472;2023-09-12T13:40:41;25.60;98.40
23715;DHT22;12036;50.858;4.472;2023-09-12T13:43:07;25.50;98.40
23715;DHT22;12036;50.858;4.472;2023-09-12T13:45:34;25.40;98.60
23715;DHT22;12036;50.858;4.472;2023-09-12T13:48:00;25.40;98.30
23715;DHT22;12036;50.858;4.472;2023-09-12T13:50:26;25.40;98.30
23715;DHT22;12036;50.858;4.472;2023-09-12T13:52:58;25.40;98.70
23715;DHT22;12036;50.858;4.472;2023-09-12T13:55:34;25.40;98.50
23715;DHT22;12036;50.858;4.472;2023-09-12T13:58:02;25.50;98.40
23715;DHT22;12036;50.858;4.472;2023-09-12T14:00:28;25.40;98.40
23715;DHT22;12036;50.858;4.472;2023-09-12T14:02:54;25.40;98.30
23715;DHT22;12036;50.858;4.472;2023-09-12T14:05:19;25.40;98.20
23715;DHT22;12036;50.858;4.472;2023-09-12T14:07:45;25.40;98.40
23715;DHT22;12036;50.858;4.472;2023-09-12T14:10:11;25.50;97.90
23715;DHT22;12036;50.858;4.472;2023-09-12T14:12:36;25.50;97.90
23715;DHT22;12036;50.858;4.472;2023-09-12T14:15:02;25.50;98.10
23715;DHT22;12036;50.858;4.472;2023-09-12T14:17:29;25.40;98.40
23715;DHT22;12036;50.858;4.472;2023-09-12T14:19:55;25.40;98.40
23715;DHT22;12036;50.858;4.472;2023-09-12T14:22:20;25.30;98.50
23715;DHT22;12036;50.858;4.472;2023-09-12T14:24:47;25.30;98.50
23715;DHT22;12036;50.858;4.472;2023-09-12T14:27:12;25.20;98.50
23715;DHT22;12036;50.858;4.472;2023-09-12T14:29:38;25.20;98.50
23715;DHT22;12036;50.858;4.472;2023-09-12T14:32:04;25.10;99.20
23715;DHT22;12036;50.858;4.472;2023-09-12T14:34:30;25.00;99.40
23715;DHT22;12036;50.858;4.472;2023-09-12T14:36:58;25.00;99.40
23715;DHT22;12036;50.858;4.472;2023-09-12T14:39:25;25.00;99.30
23715;DHT22;12036;50.858;4.472;2023-09-12T14:41:51;25.00;99.40
23715;DHT22;12036;50.858;4.472;2023-09-12T14:44:24;25.00;99.50
23715;DHT22;12036;50.858;4.472;2023-09-12T14:46:50;24.90;99.90
23715;DHT22;12036;50.858;4.472;2023-09-12T14:49:16;24.80;99.90
23715;DHT22;12036;50.858;4.472;2023-09-12T14:51:42;24.80;99.80
23715;DHT22;12036;50.858;4.472;2023-09-12T14:54:08;24.80;99.80
23715;DHT22;12036;50.858;4.472;2023-09-12T14:56:34;24.90;99.90
23715;DHT22;12036;50.858;4.472;2023-09-12T14:59:00;24.80;99.90
23715;DHT22;12036;50.858;4.472;2023-09-12T15:01:27;24.90;99.90
23715;DHT22;12036;50.858;4.472;2023-09-12T15:03:53;24.90;99.90
23715;DHT22;12036;50.858;4.472;2023-09-12T15:06:20;24.80;99.90
23715;DHT22;12036;50.858;4.472;2023-09-12T15:08:45;24.60;99.90
23715;DHT22;12036;50.858;4.472;2023-09-12T15:11:11;24.70;99.90
23715;DHT22;12036;50.858;4.472;2023-09-12T15:13:37;24.60;99.90
23715;DHT22;12036;50.858;4.472;2023-09-12T15:16:03;24.50;99.90
23715;DHT22;12036;50.858;4.472;2023-09-12T15:18:29;24.50;99.90
23715;DHT22;12036;50.858;4.472;2023-09-12T15:20:55;24.50;99.90
23715;DHT22;12036;50.858;4.472;2023-09-12T15:23:21;24.40;99.90
23715;DHT22;12036;50.858;4.472;2023-09-12T15:25:48;24.30;99.90
23715;DHT22;12036;50.858;4.472;2023-09-12T15:28:14;24.20;99.90
23715;DHT22;12036;50.858;4.472;2023-09-12T15:30:40;24.20;99.90
23715;DHT22;12036;50.858;4.472;2023-09-12T15:33:05;24.20;99.90
23715;DHT22;12036;50.858;4.472;2023-09-12T15:35:31;24.10;99.90
23715;DHT22;12036;50.858;4.472;2023-09-12T15:37:57;24.00;99.90
23715;DHT22;12036;50.858;4.472;2023-09-12T15:40:23;24.00;99.90
23715;DHT22;12036;50.858;4.472;2023-09-12T15:42:48;23.90;99.90
23715;DHT22;12036;50.858;4.472;2023-09-12T15:45:14;23.90;99.90